HEMS5 YMEN-YMEN
Flight info
| Callsign | HEMS5 |
|---|---|
| Flight time | 0h 47m |
| Altitude | 1500 |
| Route | SUNBURY CORRIDOR WOODEND SUNBURY CORRIDOR YRMH |
| Aircraft | EC45/L-G/1200 |
Departure
| Time | 2026-04-19 04:47 |
|---|---|
| Airport | Melbourne Essendon Airport (YMEN) |
Arrival
| Time | 2026-04-19 05:34 |
|---|---|
| Airport | Melbourne Essendon Airport (YMEN) |
| Time | Latitude | Longitude | Altitude | Speed | Heading |
|---|---|---|---|---|---|
| 2026-04-19 04:36 | -37.72025 | 144.89877 | 270 ft | 0 kts | 267° |
| 2026-04-19 04:44 | -37.72027 | 144.89870 | 273 ft | 1 kts | 21° |
| 2026-04-19 04:45 | -37.72033 | 144.89887 | 278 ft | 4 kts | 93° |
| 2026-04-19 04:45 | -37.72052 | 144.89935 | 287 ft | 5 kts | 92° |
| 2026-04-19 04:45 | -37.72052 | 144.89972 | 285 ft | 2 kts | 92° |
| 2026-04-19 04:45 | -37.72052 | 144.89999 | 286 ft | 6 kts | 92° |
| 2026-04-19 04:46 | -37.72056 | 144.90065 | 299 ft | 7 kts | 175° |
| 2026-04-19 04:46 | -37.72112 | 144.90065 | 292 ft | 12 kts | 175° |
| 2026-04-19 04:46 | -37.72118 | 144.90066 | 295 ft | 0 kts | 175° |
| 2026-04-19 04:46 | -37.72121 | 144.90066 | 291 ft | 0 kts | 175° |
| 2026-04-19 04:47 | -37.72180 | 144.90068 | 376 ft | 30 kts | 177° |
| 2026-04-19 04:47 | -37.72472 | 144.90087 | 663 ft | 58 kts | 186° |
| 2026-04-19 04:47 | -37.73013 | 144.90107 | 903 ft | 92 kts | 179° |
| 2026-04-19 04:47 | -37.73436 | 144.90576 | 1237 ft | 90 kts | 91° |
| 2026-04-19 04:48 | -37.72954 | 144.91120 | 1313 ft | 118 kts | 5° |
| 2026-04-19 04:48 | -37.72139 | 144.91323 | 1441 ft | 120 kts | 2° |
| 2026-04-19 04:48 | -37.71335 | 144.91495 | 1744 ft | 115 kts | 359° |
| 2026-04-19 04:48 | -37.70563 | 144.91296 | 1889 ft | 115 kts | 325° |
| 2026-04-19 04:49 | -37.69921 | 144.90677 | 1951 ft | 117 kts | 314° |
| 2026-04-19 04:49 | -37.69402 | 144.89901 | 1973 ft | 116 kts | 302° |
| 2026-04-19 04:49 | -37.68962 | 144.89065 | 1988 ft | 116 kts | 302° |
| 2026-04-19 04:49 | -37.68528 | 144.88213 | 1997 ft | 115 kts | 302° |
| 2026-04-19 04:50 | -37.68092 | 144.87354 | 1987 ft | 122 kts | 303° |
| 2026-04-19 04:50 | -37.67609 | 144.86436 | 2005 ft | 126 kts | 303° |
| 2026-04-19 04:50 | -37.67127 | 144.85522 | 2006 ft | 125 kts | 303° |
| 2026-04-19 04:50 | -37.66645 | 144.84602 | 2006 ft | 125 kts | 304° |
| 2026-04-19 04:51 | -37.66155 | 144.83694 | 2007 ft | 125 kts | 305° |
| 2026-04-19 04:51 | -37.65657 | 144.82790 | 2008 ft | 125 kts | 305° |
| 2026-04-19 04:51 | -37.65135 | 144.81908 | 2007 ft | 125 kts | 310° |
| 2026-04-19 04:51 | -37.64560 | 144.81082 | 2007 ft | 125 kts | 312° |
| 2026-04-19 04:52 | -37.63979 | 144.80266 | 2009 ft | 125 kts | 312° |
| 2026-04-19 04:52 | -37.63378 | 144.79471 | 2007 ft | 125 kts | 315° |
| 2026-04-19 04:52 | -37.62764 | 144.78694 | 2007 ft | 125 kts | 315° |
| 2026-04-19 04:52 | -37.62150 | 144.77916 | 2006 ft | 125 kts | 315° |
| 2026-04-19 04:53 | -37.61515 | 144.77160 | 2008 ft | 125 kts | 318° |
| 2026-04-19 04:53 | -37.60861 | 144.76436 | 2008 ft | 125 kts | 320° |
| 2026-04-19 04:53 | -37.60212 | 144.75729 | 2009 ft | 125 kts | 320° |
| 2026-04-19 04:53 | -37.59547 | 144.75018 | 2001 ft | 126 kts | 321° |
| 2026-04-19 04:54 | -37.58855 | 144.74287 | 2005 ft | 131 kts | 320° |
| 2026-04-19 04:54 | -37.58163 | 144.73547 | 2007 ft | 129 kts | 320° |
| 2026-04-19 04:54 | -37.57497 | 144.72782 | 2010 ft | 129 kts | 317° |
| 2026-04-19 04:54 | -37.56849 | 144.72000 | 2011 ft | 129 kts | 316° |
| 2026-04-19 04:55 | -37.56214 | 144.71192 | 2010 ft | 130 kts | 315° |
| 2026-04-19 04:55 | -37.55594 | 144.70360 | 2008 ft | 131 kts | 313° |
| 2026-04-19 04:55 | -37.54990 | 144.69500 | 2012 ft | 130 kts | 311° |
| 2026-04-19 04:55 | -37.54426 | 144.68610 | 2106 ft | 130 kts | 308° |
| 2026-04-19 04:56 | -37.53879 | 144.67721 | 2224 ft | 128 kts | 308° |
| 2026-04-19 04:56 | -37.53325 | 144.66826 | 2279 ft | 129 kts | 308° |
| 2026-04-19 04:56 | -37.52772 | 144.65930 | 2298 ft | 129 kts | 307° |
| 2026-04-19 04:56 | -37.52226 | 144.65035 | 2355 ft | 129 kts | 308° |
| 2026-04-19 04:57 | -37.51663 | 144.64147 | 2424 ft | 129 kts | 309° |
| 2026-04-19 04:57 | -37.51067 | 144.63315 | 2448 ft | 127 kts | 320° |
| 2026-04-19 04:57 | -37.50370 | 144.62644 | 2458 ft | 126 kts | 329° |
| 2026-04-19 04:57 | -37.49589 | 144.62132 | 2465 ft | 127 kts | 337° |
| 2026-04-19 04:58 | -37.48781 | 144.61717 | 2472 ft | 127 kts | 339° |
| 2026-04-19 04:58 | -37.47958 | 144.61311 | 2469 ft | 127 kts | 338° |
| 2026-04-19 04:58 | -37.47141 | 144.60887 | 2506 ft | 127 kts | 338° |
| 2026-04-19 04:58 | -37.46329 | 144.60462 | 2636 ft | 126 kts | 338° |
| 2026-04-19 04:59 | -37.45524 | 144.60050 | 2810 ft | 122 kts | 337° |
| 2026-04-19 04:59 | -37.44728 | 144.59650 | 2906 ft | 125 kts | 336° |
| 2026-04-19 04:59 | -37.43920 | 144.59235 | 2952 ft | 125 kts | 336° |
| 2026-04-19 04:59 | -37.43115 | 144.58823 | 2968 ft | 125 kts | 337° |
| 2026-04-19 05:00 | -37.42314 | 144.58399 | 2976 ft | 125 kts | 335° |
| 2026-04-19 05:00 | -37.41520 | 144.57973 | 2981 ft | 124 kts | 335° |
| 2026-04-19 05:00 | -37.40725 | 144.57541 | 2983 ft | 125 kts | 335° |
| 2026-04-19 05:00 | -37.39935 | 144.57096 | 2984 ft | 124 kts | 334° |
| 2026-04-19 05:01 | -37.39151 | 144.56646 | 2982 ft | 124 kts | 334° |
| 2026-04-19 05:01 | -37.38370 | 144.56183 | 2981 ft | 124 kts | 333° |
| 2026-04-19 05:01 | -37.37594 | 144.55702 | 2981 ft | 125 kts | 333° |
| 2026-04-19 05:01 | -37.36829 | 144.55250 | 2999 ft | 116 kts | 335° |
| 2026-04-19 05:02 | -37.36169 | 144.54895 | 2999 ft | 90 kts | 338° |
| 2026-04-19 05:02 | -37.35611 | 144.54686 | 2906 ft | 83 kts | 353° |
| 2026-04-19 05:02 | -37.35017 | 144.54675 | 2725 ft | 88 kts | 0° |
| 2026-04-19 05:02 | -37.34399 | 144.54797 | 2595 ft | 89 kts | 12° |
| 2026-04-19 05:03 | -37.33926 | 144.55194 | 2522 ft | 87 kts | 68° |
| 2026-04-19 05:03 | -37.34031 | 144.55929 | 2396 ft | 89 kts | 140° |
| 2026-04-19 05:03 | -37.34440 | 144.55861 | 2334 ft | 58 kts | 258° |
| 2026-04-19 05:03 | -37.34445 | 144.55463 | 2270 ft | 32 kts | 284° |
| 2026-04-19 05:04 | -37.34389 | 144.55280 | 2154 ft | 19 kts | 290° |
| 2026-04-19 05:04 | -37.34355 | 144.55178 | 1993 ft | 7 kts | 292° |
| 2026-04-19 05:04 | -37.34352 | 144.55190 | 1919 ft | 2 kts | 294° |
| 2026-04-19 05:04 | -37.34348 | 144.55190 | 1888 ft | 0 kts | 293° |
| 2026-04-19 05:05 | -37.34344 | 144.55183 | 1882 ft | 0 kts | 193° |
| 2026-04-19 05:15 | -37.34346 | 144.55180 | 1939 ft | 3 kts | 192° |
| 2026-04-19 05:15 | -37.34567 | 144.55100 | 2294 ft | 66 kts | 193° |
| 2026-04-19 05:15 | -37.35112 | 144.55077 | 2638 ft | 85 kts | 171° |
| 2026-04-19 05:16 | -37.35769 | 144.55153 | 2814 ft | 106 kts | 162° |
| 2026-04-19 05:16 | -37.36538 | 144.55278 | 2880 ft | 108 kts | 161° |
| 2026-04-19 05:16 | -37.37231 | 144.55588 | 2899 ft | 108 kts | 158° |
| 2026-04-19 05:16 | -37.37971 | 144.55734 | 2926 ft | 105 kts | 166° |
| 2026-04-19 05:17 | -37.38681 | 144.55948 | 2930 ft | 105 kts | 162° |
| 2026-04-19 05:17 | -37.39378 | 144.56232 | 2943 ft | 105 kts | 161° |
| 2026-04-19 05:17 | -37.40052 | 144.56587 | 2950 ft | 106 kts | 153° |
| 2026-04-19 05:17 | -37.40694 | 144.57042 | 2904 ft | 108 kts | 150° |
| 2026-04-19 05:18 | -37.41399 | 144.57552 | 2738 ft | 119 kts | 150° |
| 2026-04-19 05:18 | -37.42125 | 144.58075 | 2594 ft | 121 kts | 150° |
| 2026-04-19 05:18 | -37.42854 | 144.58606 | 2535 ft | 121 kts | 150° |
| 2026-04-19 05:18 | -37.43575 | 144.59156 | 2516 ft | 121 kts | 148° |
| 2026-04-19 05:19 | -37.44294 | 144.59717 | 2507 ft | 122 kts | 149° |
| 2026-04-19 05:19 | -37.45017 | 144.60270 | 2502 ft | 122 kts | 149° |
| 2026-04-19 05:19 | -37.45745 | 144.60816 | 2500 ft | 122 kts | 149° |
| 2026-04-19 05:19 | -37.46467 | 144.61369 | 2498 ft | 121 kts | 148° |
| 2026-04-19 05:20 | -37.47173 | 144.61940 | 2500 ft | 120 kts | 147° |
| 2026-04-19 05:20 | -37.47865 | 144.62521 | 2498 ft | 119 kts | 146° |
| 2026-04-19 05:20 | -37.48551 | 144.63109 | 2499 ft | 119 kts | 145° |
| 2026-04-19 05:20 | -37.49217 | 144.63709 | 2497 ft | 119 kts | 144° |
| 2026-04-19 05:21 | -37.49891 | 144.64320 | 2498 ft | 119 kts | 144° |
| 2026-04-19 05:21 | -37.50567 | 144.64933 | 2498 ft | 120 kts | 144° |
| 2026-04-19 05:21 | -37.51242 | 144.65551 | 2499 ft | 120 kts | 143° |
| 2026-04-19 05:21 | -37.51903 | 144.66181 | 2416 ft | 119 kts | 141° |
| 2026-04-19 05:22 | -37.52545 | 144.66813 | 2249 ft | 115 kts | 141° |
| 2026-04-19 05:22 | -37.53171 | 144.67437 | 2154 ft | 115 kts | 141° |
| 2026-04-19 05:22 | -37.53773 | 144.68050 | 2054 ft | 110 kts | 140° |
| 2026-04-19 05:22 | -37.54360 | 144.68668 | 2012 ft | 110 kts | 139° |
| 2026-04-19 05:23 | -37.54939 | 144.69305 | 1996 ft | 112 kts | 138° |
| 2026-04-19 05:23 | -37.55321 | 144.69737 | 1989 ft | 111 kts | 135° |
| 2026-04-19 05:23 | -37.55865 | 144.70430 | 1983 ft | 111 kts | 133° |
| 2026-04-19 05:23 | -37.56397 | 144.71140 | 1980 ft | 112 kts | 132° |
| 2026-04-19 05:24 | -37.56924 | 144.71850 | 1979 ft | 111 kts | 132° |
| 2026-04-19 05:24 | -37.57450 | 144.72562 | 1979 ft | 111 kts | 132° |
| 2026-04-19 05:24 | -37.57973 | 144.73276 | 1977 ft | 111 kts | 131° |
| 2026-04-19 05:24 | -37.58517 | 144.74025 | 1984 ft | 117 kts | 130° |
| 2026-04-19 05:25 | -37.59048 | 144.74780 | 1986 ft | 114 kts | 130° |
| 2026-04-19 05:25 | -37.59569 | 144.75537 | 1992 ft | 115 kts | 130° |
| 2026-04-19 05:25 | -37.60104 | 144.76319 | 1991 ft | 119 kts | 130° |
| 2026-04-19 05:25 | -37.60642 | 144.77103 | 1990 ft | 118 kts | 130° |
| 2026-04-19 05:26 | -37.61214 | 144.77847 | 1986 ft | 118 kts | 135° |
| 2026-04-19 05:26 | -37.61815 | 144.78553 | 1986 ft | 118 kts | 137° |
| 2026-04-19 05:26 | -37.62431 | 144.79242 | 1986 ft | 118 kts | 138° |
| 2026-04-19 05:26 | -37.63057 | 144.79914 | 1986 ft | 118 kts | 139° |
| 2026-04-19 05:27 | -37.63689 | 144.80584 | 1986 ft | 118 kts | 139° |
| 2026-04-19 05:27 | -37.64319 | 144.81249 | 1986 ft | 118 kts | 139° |
| 2026-04-19 05:27 | -37.64948 | 144.81919 | 1986 ft | 118 kts | 138° |
| 2026-04-19 05:27 | -37.65562 | 144.82609 | 1986 ft | 118 kts | 137° |
| 2026-04-19 05:28 | -37.66165 | 144.83311 | 1988 ft | 118 kts | 135° |
| 2026-04-19 05:28 | -37.66767 | 144.83995 | 1987 ft | 118 kts | 140° |
| 2026-04-19 05:28 | -37.67412 | 144.84638 | 1987 ft | 118 kts | 142° |
| 2026-04-19 05:28 | -37.68067 | 144.85267 | 1986 ft | 118 kts | 142° |
| 2026-04-19 05:29 | -37.68732 | 144.85894 | 1981 ft | 122 kts | 143° |
| 2026-04-19 05:29 | -37.69433 | 144.86527 | 1988 ft | 123 kts | 143° |
| 2026-04-19 05:29 | -37.70130 | 144.87156 | 1986 ft | 123 kts | 143° |
| 2026-04-19 05:29 | -37.70826 | 144.87794 | 1987 ft | 123 kts | 143° |
| 2026-04-19 05:30 | -37.71522 | 144.88426 | 1984 ft | 123 kts | 143° |
| 2026-04-19 05:30 | -37.72215 | 144.89057 | 1984 ft | 123 kts | 143° |
| 2026-04-19 05:30 | -37.72900 | 144.89701 | 1985 ft | 123 kts | 142° |
| 2026-04-19 05:30 | -37.73583 | 144.90353 | 1986 ft | 123 kts | 143° |
| 2026-04-19 05:31 | -37.74277 | 144.90987 | 1988 ft | 123 kts | 143° |
| 2026-04-19 05:31 | -37.74972 | 144.91621 | 1986 ft | 123 kts | 143° |
| 2026-04-19 05:31 | -37.75669 | 144.92254 | 1987 ft | 123 kts | 143° |
| 2026-04-19 05:31 | -37.76319 | 144.92860 | 1989 ft | 111 kts | 142° |
| 2026-04-19 05:32 | -37.76926 | 144.93463 | 1996 ft | 105 kts | 140° |
| 2026-04-19 05:32 | -37.77467 | 144.94060 | 1989 ft | 106 kts | 139° |
| 2026-04-19 05:32 | -37.77985 | 144.94697 | 1973 ft | 101 kts | 137° |
| 2026-04-19 05:32 | -37.78483 | 144.95320 | 1872 ft | 98 kts | 138° |
| 2026-04-19 05:33 | -37.78958 | 144.95926 | 1800 ft | 96 kts | 136° |
| 2026-04-19 05:33 | -37.79434 | 144.96473 | 1461 ft | 86 kts | 144° |
| 2026-04-19 05:33 | -37.79899 | 144.96841 | 1259 ft | 71 kts | 163° |
| 2026-04-19 05:33 | -37.80301 | 144.96649 | 1059 ft | 63 kts | 257° |
| 2026-04-19 05:34 | -37.80323 | 144.96204 | 911 ft | 50 kts | 312° |
| 2026-04-19 05:34 | -37.80237 | 144.95690 | 722 ft | 59 kts | 296° |
| 2026-04-19 05:34 | -37.80015 | 144.95368 | 588 ft | 45 kts | 24° |
| 2026-04-19 05:34 | -37.79897 | 144.95488 | 452 ft | 15 kts | 100° |
| 2026-04-19 05:35 | -37.79919 | 144.95572 | 335 ft | 7 kts | 101° |
| 2026-04-19 05:35 | -37.79923 | 144.95605 | 250 ft | 2 kts | 101° |
| 2026-04-19 05:35 | -37.79924 | 144.95612 | 229 ft | 0 kts | 95° |
| 2026-04-19 05:46 | -37.79932 | 144.95641 | 409 ft | 25 kts | 90° |
| 2026-04-19 05:46 | -37.79777 | 144.95856 | 680 ft | 46 kts | 359° |
| 2026-04-19 05:46 | -37.79268 | 144.95828 | 869 ft | 95 kts | 334° |
| 2026-04-19 05:46 | -37.78607 | 144.95494 | 1162 ft | 102 kts | 322° |
| 2026-04-19 05:47 | -37.77962 | 144.95071 | 1527 ft | 108 kts | 319° |
| 2026-04-19 05:47 | -37.77288 | 144.94518 | 1772 ft | 119 kts | 324° |
| 2026-04-19 05:47 | -37.76545 | 144.94083 | 1466 ft | 122 kts | 339° |
| 2026-04-19 05:47 | -37.75775 | 144.93691 | 1345 ft | 118 kts | 341° |
| 2026-04-19 05:48 | -37.74985 | 144.93431 | 1280 ft | 118 kts | 352° |
| 2026-04-19 05:48 | -37.74168 | 144.93309 | 1260 ft | 119 kts | 359° |
| 2026-04-19 05:48 | -37.73345 | 144.93333 | 1246 ft | 118 kts | 8° |
| 2026-04-19 05:48 | -37.72583 | 144.93458 | 1241 ft | 101 kts | 9° |
| 2026-04-19 05:49 | -37.71874 | 144.93440 | 1225 ft | 104 kts | 1° |
| 2026-04-19 05:49 | -37.71154 | 144.93303 | 1228 ft | 104 kts | 356° |
| 2026-04-19 05:49 | -37.70488 | 144.93134 | 1174 ft | 87 kts | 348° |
| 2026-04-19 05:49 | -37.70062 | 144.92636 | 1095 ft | 88 kts | 293° |
| 2026-04-19 05:50 | -37.69973 | 144.91867 | 1070 ft | 89 kts | 272° |
| 2026-04-19 05:50 | -37.69946 | 144.91130 | 1061 ft | 77 kts | 264° |
| 2026-04-19 05:50 | -37.69980 | 144.90471 | 1018 ft | 80 kts | 255° |
| 2026-04-19 05:50 | -37.70333 | 144.89977 | 972 ft | 80 kts | 194° |
| 2026-04-19 05:51 | -37.70913 | 144.89960 | 822 ft | 86 kts | 182° |
| 2026-04-19 05:51 | -37.71480 | 144.90063 | 626 ft | 79 kts | 189° |
| 2026-04-19 05:51 | -37.71924 | 144.90100 | 438 ft | 42 kts | 192° |
| 2026-04-19 05:51 | -37.72102 | 144.90088 | 307 ft | 15 kts | 196° |
| 2026-04-19 05:52 | -37.72160 | 144.90039 | 292 ft | 7 kts | 265° |
| 2026-04-19 05:52 | -37.72164 | 144.89984 | 286 ft | 4 kts | 275° |
| 2026-04-19 05:52 | -37.72135 | 144.89931 | 281 ft | 10 kts | 348° |
| 2026-04-19 05:52 | -37.72073 | 144.89920 | 280 ft | 9 kts | 17° |
| 2026-04-19 05:53 | -37.72029 | 144.89904 | 281 ft | 8 kts | 274° |
| 2026-04-19 05:53 | -37.72027 | 144.89880 | 272 ft | 0 kts | 5° |